createdAt,value
2023-05-11T00:08:24.261Z,3.979933110367893
2023-05-11T00:14:43.293Z,4.3076923076923075
2023-05-11T00:21:02.170Z,4.729096989966555
2023-05-11T00:27:21.602Z,5.45819397993311
2023-05-11T00:39:36.829Z,8.080267558528428
2023-05-11T00:45:55.802Z,12.053511705685619
2023-05-11T00:52:15.368Z,12.505016722408026
2023-05-11T01:07:33.450Z,15.053511705685619
2023-05-11T01:18:57.194Z,16.892976588628763
2023-05-11T01:32:05.405Z,18.745819397993312
2023-05-11T01:38:24.472Z,17.779264214046822
2023-05-11T01:44:43.224Z,19.859531772575252
2023-05-11T01:51:01.491Z,16.638795986622075
2023-05-11T01:57:20.547Z,21.74916387959866
2023-05-11T02:11:57.932Z,18.759197324414714
2023-05-11T02:18:17.700Z,19.846153846153847
2023-05-11T02:25:24.051Z,21.53846153846154
2023-05-11T02:36:30.207Z,24.040133779264213
2023-05-11T02:42:49.889Z,23.438127090301002
2023-05-11T02:59:43.307Z,19.140468227424748
2023-05-11T03:06:01.634Z,18.02675585284281
2023-05-11T03:14:39.830Z,20.19732441471572
2023-05-11T03:26:02.126Z,16.876254180602007
2023-05-11T03:32:20.801Z,17.224080267558527
2023-05-11T03:50:04.115Z,16.421404682274247
2023-05-11T03:56:27.258Z,14.856187290969899
2023-05-11T04:05:45.695Z,13.755852842809364
2023-05-11T04:12:06.407Z,10.822742474916389
2023-05-11T04:22:16.977Z,12.946488294314381
2023-05-11T04:28:39.794Z,11.043478260869565
2023-05-11T04:38:47.392Z,12.290969899665551
2023-05-11T04:45:08.964Z,13.341137123745819
2023-05-11T04:51:29.814Z,14.946488294314381
2023-05-11T04:59:26.506Z,12.799331103678929
2023-05-11T05:05:46.749Z,11.568561872909699
2023-05-11T05:12:07.906Z,11.357859531772576
2023-05-11T05:23:43.375Z,10.85953177257525
2023-05-11T05:32:06.362Z,10.224080267558529
2023-05-11T05:42:42.636Z,14.846153846153847
2023-05-11T05:49:12.833Z,12.384615384615385
2023-05-11T05:55:44.976Z,11.548494983277592
2023-05-11T06:02:21.514Z,11.33779264214047
2023-05-11T06:08:47.999Z,13.127090301003344
2023-05-11T06:15:12.999Z,11.411371237458194
2023-05-11T06:21:41.585Z,11.080267558528428
2023-05-11T06:28:07.311Z,7.1806020066889635
2023-05-11T06:34:33.370Z,12.040133779264215
2023-05-11T06:55:40.824Z,7.7725752508361206
2023-05-11T07:02:04.986Z,7.896321070234114
2023-05-11T07:12:18.947Z,7.361204013377926
2023-05-11T07:23:47.525Z,8.765886287625419
2023-05-11T07:33:06.101Z,9.545150501672241
2023-05-11T07:39:27.928Z,8.331103678929766
2023-05-11T07:48:15.799Z,7.130434782608695
2023-05-11T07:54:38.392Z,9.361204013377927
2023-05-11T08:04:50.119Z,5.842809364548495
2023-05-11T08:13:01.125Z,6.45819397993311
2023-05-11T08:25:02.375Z,5.39799331103679
2023-05-11T08:35:39.945Z,7.682274247491639
2023-05-11T08:45:41.096Z,6.695652173913044
2023-05-11T09:00:21.010Z,5.481605351170568
2023-05-11T09:06:43.789Z,3.468227424749164
2023-05-11T09:20:06.041Z,5.581939799331104
2023-05-11T09:33:43.330Z,5.25752508361204
2023-05-11T09:43:21.056Z,4.959866220735786
2023-05-11T09:49:45.984Z,6.1237458193979935
2023-05-11T09:58:33.926Z,3.899665551839465
2023-05-11T10:04:56.677Z,4.789297658862877
2023-05-11T10:11:20.109Z,4.769230769230769
2023-05-11T10:18:00.029Z,6.919732441471572
2023-05-11T10:30:25.881Z,5.846153846153846
2023-05-11T10:36:51.152Z,10.217391304347826
2023-05-11T10:43:15.518Z,8.294314381270903
2023-05-11T10:49:37.240Z,6.37123745819398
2023-05-11T11:03:34.678Z,7.555183946488294
2023-05-11T11:12:34.071Z,7.050167224080267
2023-05-11T11:18:57.509Z,7.528428093645485
2023-05-11T11:25:26.905Z,8.220735785953178
2023-05-11T11:31:50.903Z,6.655518394648829
2023-05-11T11:52:57.307Z,3.668896321070234
2023-05-11T11:59:20.102Z,4.531772575250836
2023-05-11T12:05:43.097Z,4.531772575250836
2023-05-11T12:12:07.388Z,6.973244147157191
2023-05-11T12:18:32.264Z,5.54180602006689
2023-05-11T12:31:03.978Z,3.230769230769231
2023-05-11T12:37:29.036Z,2.4414715719063547
2023-05-11T12:43:51.921Z,3.321070234113712
2023-05-11T12:50:14.618Z,1.919732441471572
2023-05-11T12:58:55.114Z,2.4849498327759196
2023-05-11T13:06:49.048Z,1.1137123745819397
2023-05-11T13:19:04.171Z,1.4581939799331103
2023-05-11T13:29:09.399Z,1.7023411371237458
2023-05-11T13:35:32.868Z,1.7525083612040133
2023-05-11T13:41:56.191Z,2.6956521739130435
2023-05-11T13:48:18.774Z,3.5652173913043477
2023-05-11T13:54:41.476Z,1.4983277591973243
2023-05-11T14:01:08.417Z,4.063545150501672
2023-05-11T14:07:45.797Z,3.591973244147157
2023-05-11T14:17:56.707Z,3.2140468227424748
2023-05-11T14:24:18.710Z,3.3411371237458196
2023-05-11T14:30:48.583Z,2.9163879598662206
2023-05-11T14:43:02.421Z,2.612040133779264
2023-05-11T14:49:24.395Z,1.4782608695652173
2023-05-11T14:55:46.141Z,2.351170568561873
2023-05-11T15:02:08.859Z,2.7525083612040135
2023-05-11T15:08:31.288Z,2.1538461538461537
2023-05-11T15:14:52.996Z,3.31438127090301
2023-05-11T15:21:14.924Z,3.0133779264214047
2023-05-11T15:27:36.711Z,3.297658862876254
2023-05-11T15:33:58.179Z,3.1839464882943145
2023-05-11T15:45:45.649Z,4.103678929765886
2023-05-11T15:52:23.461Z,3.4749163879598663
2023-05-11T15:58:45.290Z,4.046822742474917
2023-05-11T16:05:06.894Z,5.290969899665551
2023-05-11T16:29:37.794Z,6.548494983277592
2023-05-11T16:36:00.397Z,5.725752508361204
2023-05-11T16:44:33.884Z,5.344481605351171
2023-05-11T16:50:55.748Z,5.013377926421405
2023-05-11T17:01:11.567Z,4.321070234113712
2023-05-11T17:07:32.957Z,4.521739130434782
2023-05-11T17:13:54.263Z,3.963210702341137
2023-05-11T17:25:44.233Z,5.438127090301004
2023-05-11T17:32:05.993Z,4.59866220735786
2023-05-11T17:38:27.707Z,3.882943143812709
2023-05-11T17:47:36.063Z,6.033444816053512
2023-05-11T17:53:57.687Z,8.20401337792642
2023-05-11T18:07:56.063Z,7.090301003344481
2023-05-11T18:14:17.722Z,7.933110367892977
2023-05-11T18:22:26.487Z,7.588628762541806
2023-05-11T18:28:48.678Z,6.896321070234114
2023-05-11T18:37:46.967Z,7.745819397993311
2023-05-11T18:44:08.984Z,7.538461538461538
2023-05-11T18:50:31.187Z,8.438127090301004
2023-05-11T18:56:53.444Z,8.494983277591974
2023-05-11T19:03:19.792Z,8.836120401337793
2023-05-11T19:11:17.820Z,11.719063545150501
2023-05-11T19:17:39.182Z,6.301003344481606
2023-05-11T19:24:02.435Z,7.889632107023411
2023-05-11T19:30:23.554Z,10.642140468227424
2023-05-11T19:41:07.496Z,12.96989966555184
